Time;durP1;ratioP1;P1;durP2;ratioP2;P2;SDS_P1;SDS_P2;PMS_P1;PMS_P2;Temp;Humidity;BMP_temperature;BMP_pressure;BME280_temperature;BME280_humidity;BME280_pressure;Samples;Min_cycle;Max_cycle;Signal;HPM_P1;HPM_P2
2021/04/28 00:02:00;;;;;;;1.90;1.30;;;6.30;99.90;;;;;;5066151;28;20707;-74
2021/04/28 00:04:25;;;;;;;2.88;1.63;;;6.20;99.90;;;;;;5064846;28;20075;-74
2021/04/28 00:06:51;;;;;;;2.65;1.27;;;6.30;99.90;;;;;;5066126;28;20556;-74
2021/04/28 00:09:17;;;;;;;2.70;1.35;;;6.10;99.90;;;;;;5065957;28;20037;-73
2021/04/28 00:11:43;;;;;;;2.35;1.10;;;6.20;99.90;;;;;;5066105;28;20042;-74
2021/04/28 00:14:10;;;;;;;3.40;1.67;;;6.00;99.90;;;;;;5066018;28;20528;-74
2021/04/28 00:16:36;;;;;;;1.60;0.85;;;6.00;99.90;;;;;;5066175;28;20033;-74
2021/04/28 00:19:03;;;;;;;2.65;1.45;;;6.00;99.90;;;;;;5065797;28;20083;-74
2021/04/28 00:21:29;;;;;;;2.38;1.27;;;5.90;99.90;;;;;;5064379;28;20513;-74
2021/04/28 00:23:55;;;;;;;6.07;2.10;;;5.90;99.90;;;;;;5064433;28;20119;-74
2021/04/28 00:26:21;;;;;;;3.58;1.63;;;6.00;99.90;;;;;;5064382;28;20029;-75
2021/04/28 00:28:46;;;;;;;1.60;1.30;;;5.90;99.90;;;;;;5065647;28;20029;-75
2021/04/28 00:31:13;;;;;;;1.55;1.08;;;5.90;99.90;;;;;;5066015;28;20469;-75
2021/04/28 00:33:39;;;;;;;2.33;1.63;;;5.90;99.90;;;;;;5064571;28;20446;-74
2021/04/28 00:36:05;;;;;;;1.50;1.17;;;5.80;99.90;;;;;;5065496;28;20047;-74
2021/04/28 00:38:31;;;;;;;2.95;1.65;;;5.80;99.90;;;;;;5065648;28;20037;-74
2021/04/28 00:40:57;;;;;;;2.40;1.67;;;5.80;99.90;;;;;;5064160;28;20132;-74
2021/04/28 00:43:23;;;;;;;1.75;1.13;;;5.70;99.90;;;;;;5064122;28;20029;-73
2021/04/28 00:45:49;;;;;;;2.50;1.60;;;5.70;99.90;;;;;;5065585;28;20106;-74
2021/04/28 00:48:15;;;;;;;12.18;1.75;;;5.60;99.90;;;;;;5065489;28;20029;-74
2021/04/28 00:50:44;;;;;;;5.10;1.88;;;5.60;99.90;;;;;;5065398;28;20052;-74
2021/04/28 00:53:14;;;;;;;7.45;1.67;;;5.60;99.90;;;;;;5065450;28;20023;-75
2021/04/28 00:55:40;;;;;;;4.30;1.73;;;5.60;99.90;;;;;;5065060;28;20029;-75
2021/04/28 00:58:06;;;;;;;2.72;1.50;;;5.50;99.90;;;;;;5065419;28;20021;-74
2021/04/28 01:00:33;;;;;;;2.50;1.65;;;5.50;99.90;;;;;;5065290;28;20397;-74
2021/04/28 01:02:59;;;;;;;3.70;1.65;;;5.40;99.90;;;;;;5063442;28;20029;-74
2021/04/28 01:05:25;;;;;;;5.18;1.38;;;5.40;99.90;;;;;;5064122;28;20120;-74
2021/04/28 01:07:51;;;;;;;5.95;1.83;;;5.30;99.90;;;;;;5064852;28;20516;-75
2021/04/28 01:10:20;;;;;;;4.18;1.90;;;5.30;99.90;;;;;;5064856;28;20028;-75
2021/04/28 01:12:47;;;;;;;2.78;1.23;;;5.30;99.90;;;;;;5064867;28;20401;-74
2021/04/28 01:15:16;;;;;;;3.03;1.67;;;5.20;99.90;;;;;;5064978;28;20021;-75
2021/04/28 01:17:42;;;;;;;3.05;1.45;;;5.20;99.90;;;;;;5063538;28;20059;-75
2021/04/28 01:20:11;;;;;;;4.68;1.75;;;5.20;99.90;;;;;;5063823;28;20033;-74
2021/04/28 01:22:41;;;;;;;2.53;1.30;;;5.20;99.90;;;;;;5064556;28;20053;-75
2021/04/28 01:25:09;;;;;;;6.00;1.92;;;5.10;99.90;;;;;;5064734;28;20040;-75
2021/04/28 01:27:36;;;;;;;2.42;1.25;;;5.10;99.90;;;;;;5064732;28;20025;-74
2021/04/28 01:30:04;;;;;;;4.13;1.95;;;5.10;99.90;;;;;;5064616;28;20041;-75
2021/04/28 01:32:30;;;;;;;5.90;2.30;;;5.10;99.90;;;;;;5063261;28;20048;-74
2021/04/28 01:34:57;;;;;;;3.72;1.73;;;5.10;99.90;;;;;;5064346;28;20482;-74
2021/04/28 01:37:25;;;;;;;4.30;1.90;;;5.10;99.90;;;;;;5064656;28;20127;-74
2021/04/28 01:39:51;;;;;;;2.60;1.85;;;5.00;99.90;;;;;;5064594;28;20036;-75
2021/04/28 01:42:18;;;;;;;3.00;1.65;;;5.00;99.90;;;;;;5064741;28;20151;-75
2021/04/28 01:44:45;;;;;;;2.53;1.58;;;5.00;99.90;;;;;;5064369;28;20029;-75
2021/04/28 01:47:12;;;;;;;2.20;1.30;;;5.00;99.90;;;;;;5063919;28;20021;-74
2021/04/28 01:49:38;;;;;;;2.97;1.50;;;4.90;99.90;;;;;;5064347;28;20117;-75
2021/04/28 01:52:04;;;;;;;3.05;1.27;;;4.90;99.90;;;;;;5063075;28;20048;-74
2021/04/28 01:54:30;;;;;;;5.40;1.83;;;4.90;99.90;;;;;;5064372;28;20481;-75
2021/04/28 01:56:56;;;;;;;15.48;1.77;;;4.80;99.90;;;;;;5064445;28;20029;-75
2021/04/28 01:59:22;;;;;;;3.33;1.50;;;4.80;99.90;;;;;;5064586;28;20021;-74
2021/04/28 02:01:52;;;;;;;6.28;1.63;;;4.80;99.90;;;;;;5064324;28;20021;-73
2021/04/28 02:04:18;;;;;;;6.70;1.73;;;4.70;99.90;;;;;;5064307;28;20550;-74
2021/04/28 02:06:45;;;;;;;1.52;1.27;;;4.70;99.90;;;;;;5064237;28;20085;-74
2021/04/28 02:09:11;;;;;;;3.17;1.83;;;4.70;99.90;;;;;;5064341;28;20036;-74
2021/04/28 02:11:37;;;;;;;5.55;1.98;;;4.70;99.90;;;;;;5064498;28;20087;-75
2021/04/28 02:14:05;;;;;;;2.15;1.30;;;4.70;99.90;;;;;;5064199;28;20033;-74
2021/04/28 02:16:32;;;;;;;2.55;1.58;;;4.70;99.90;;;;;;5064228;28;20085;-74
2021/04/28 02:19:03;;;;;;;7.03;1.42;;;4.60;99.90;;;;;;5064280;28;20059;-74
2021/04/28 02:21:29;;;;;;;3.72;1.88;;;4.60;99.90;;;;;;5064185;28;20064;-74
2021/04/28 02:23:55;;;;;;;2.40;1.38;;;4.60;99.90;;;;;;5062512;28;20045;-74
2021/04/28 02:26:21;;;;;;;3.95;1.88;;;4.60;99.90;;;;;;5064004;28;20362;-74
2021/04/28 02:28:46;;;;;;;3.58;1.70;;;4.60;99.90;;;;;;5063663;28;20039;-75
2021/04/28 02:31:12;;;;;;;3.03;1.58;;;4.50;99.90;;;;;;5064124;28;20037;-74
2021/04/28 02:33:38;;;;;;;12.98;1.67;;;4.50;99.90;;;;;;5064303;28;20287;-74
2021/04/28 02:36:04;;;;;;;2.42;1.73;;;4.50;99.90;;;;;;5062682;28;20033;-74
2021/04/28 02:38:54;;;;;;;3.25;1.75;;;4.40;99.90;;;;;;5063625;28;20053;-74
2021/04/28 02:41:22;;;;;;;3.45;1.45;;;4.40;99.90;;;;;;5063541;28;20021;-74
2021/04/28 02:43:49;;;;;;;3.90;1.80;;;4.30;99.90;;;;;;5063505;28;20036;-75
2021/04/28 02:46:16;;;;;;;3.47;1.60;;;4.30;99.90;;;;;;5062034;28;20093;-75
2021/04/28 02:48:44;;;;;;;2.85;1.77;;;4.30;99.90;;;;;;5063346;28;20064;-74
2021/04/28 02:51:10;;;;;;;5.53;2.13;;;4.20;99.90;;;;;;5062630;28;20033;-75
2021/04/28 02:53:37;;;;;;;3.72;1.98;;;4.30;99.90;;;;;;5064084;28;20434;-74
2021/04/28 02:56:03;;;;;;;4.22;1.85;;;4.20;99.90;;;;;;5063647;28;20033;-74
2021/04/28 02:58:31;;;;;;;2.50;1.30;;;4.20;99.90;;;;;;5062501;28;20029;-74
2021/04/28 03:00:57;;;;;;;4.25;2.22;;;4.20;99.90;;;;;;5065874;28;20532;-75
2021/04/28 03:03:23;;;;;;;4.03;1.73;;;4.10;99.90;;;;;;5067344;28;20025;-74
2021/04/28 03:05:55;;;;;;;4.65;1.98;;;4.10;99.90;;;;;;5067468;28;20047;-75
2021/04/28 03:08:21;;;;;;;4.13;1.67;;;4.10;99.90;;;;;;5066133;28;20103;-76
2021/04/28 03:10:48;;;;;;;3.05;1.88;;;4.20;99.90;;;;;;5066656;28;20092;-75
2021/04/28 03:13:14;;;;;;;2.75;1.50;;;4.10;99.90;;;;;;5067352;28;20056;-75
2021/04/28 03:15:41;;;;;;;4.13;1.60;;;4.10;99.90;;;;;;5067504;28;20033;-74
2021/04/28 03:18:07;;;;;;;2.38;1.42;;;4.10;99.90;;;;;;5065878;28;20029;-74
2021/04/28 03:20:35;;;;;;;4.10;1.67;;;4.00;99.90;;;;;;5067088;28;20025;-74
2021/04/28 03:23:02;;;;;;;2.78;1.50;;;4.00;99.90;;;;;;5066861;28;20045;-75
2021/04/28 03:25:28;;;;;;;2.25;1.35;;;4.00;99.90;;;;;;5066954;28;20417;-74
2021/04/28 03:27:54;;;;;;;4.55;1.75;;;3.90;99.90;;;;;;5066815;28;20029;-75
2021/04/28 03:30:20;;;;;;;11.13;2.88;;;4.00;99.90;;;;;;5067069;28;20037;-74
2021/04/28 03:32:46;;;;;;;3.08;2.08;;;4.00;99.90;;;;;;5065594;28;20025;-75
2021/04/28 03:35:12;;;;;;;4.05;1.85;;;4.00;99.90;;;;;;5066982;28;20071;-75
2021/04/28 03:37:38;;;;;;;4.22;1.73;;;4.00;99.90;;;;;;5066838;28;20035;-75
2021/04/28 03:40:07;;;;;;;2.45;1.38;;;4.00;99.90;;;;;;5066736;28;20056;-74
2021/04/28 03:42:33;;;;;;;2.80;1.77;;;3.90;99.90;;;;;;5064091;28;20060;-74
2021/04/28 03:44:58;;;;;;;3.03;1.63;;;3.90;99.90;;;;;;5066653;28;20017;-75
2021/04/28 03:47:24;;;;;;;2.10;1.20;;;3.90;99.90;;;;;;5066783;28;20033;-75
2021/04/28 03:49:50;;;;;;;7.63;2.10;;;3.90;99.90;;;;;;5066459;28;20033;-75
2021/04/28 03:52:16;;;;;;;3.92;1.58;;;3.90;99.90;;;;;;5066235;28;20040;-76
2021/04/28 03:54:41;;;;;;;3.63;1.73;;;3.80;99.90;;;;;;5066309;28;20060;-74
2021/04/28 03:57:08;;;;;;;1.70;1.00;;;3.80;99.90;;;;;;5066999;28;20040;-75
2021/04/28 03:59:34;;;;;;;7.25;1.60;;;3.80;99.90;;;;;;5066445;28;20044;-74
2021/04/28 04:02:00;;;;;;;2.53;1.33;;;3.80;99.90;;;;;;5066139;28;20029;-75
2021/04/28 04:04:26;;;;;;;2.80;1.30;;;3.80;99.90;;;;;;5066650;28;20064;-75
2021/04/28 04:06:51;;;;;;;2.90;1.00;;;3.80;99.90;;;;;;5066243;28;20025;-75
2021/04/28 04:09:17;;;;;;;2.08;1.20;;;3.80;99.90;;;;;;5066021;28;20529;-76
2021/04/28 04:11:43;;;;;;;4.65;1.52;;;3.80;99.90;;;;;;5065684;28;20051;-75
2021/04/28 04:14:08;;;;;;;1.42;0.82;;;3.80;99.90;;;;;;5066294;28;20029;-75
2021/04/28 04:16:34;;;;;;;2.47;1.20;;;3.80;99.90;;;;;;5066062;28;20040;-73
2021/04/28 04:18:59;;;;;;;3.03;1.65;;;3.80;99.90;;;;;;5065839;28;20033;-74
2021/04/28 04:21:25;;;;;;;3.72;1.40;;;3.80;99.90;;;;;;5064702;28;20025;-74
2021/04/28 04:23:51;;;;;;;3.03;1.60;;;3.80;99.90;;;;;;5065584;28;20071;-74
2021/04/28 04:26:16;;;;;;;2.45;1.38;;;3.80;99.90;;;;;;5064585;28;20029;-75
2021/04/28 04:28:42;;;;;;;3.90;1.55;;;3.80;99.90;;;;;;5065711;28;20028;-75
2021/04/28 04:31:07;;;;;;;2.60;1.73;;;3.80;99.90;;;;;;5065837;28;20041;-75
2021/04/28 04:33:33;;;;;;;2.83;1.65;;;3.80;99.90;;;;;;5065673;28;20021;-74
2021/04/28 04:35:59;;;;;;;3.30;1.45;;;3.80;99.90;;;;;;5065466;28;20029;-74
2021/04/28 04:38:25;;;;;;;3.97;1.50;;;3.80;99.90;;;;;;5065348;28;20025;-74
2021/04/28 04:40:50;;;;;;;3.35;1.40;;;3.80;99.90;;;;;;5064187;28;20453;-74
2021/04/28 04:43:16;;;;;;;3.75;1.58;;;3.80;99.90;;;;;;5065687;28;20029;-75
2021/04/28 04:45:42;;;;;;;2.78;1.50;;;3.80;99.90;;;;;;5065549;28;20036;-76
2021/04/28 04:48:09;;;;;;;2.45;1.33;;;3.90;99.90;;;;;;5064459;28;20043;-74
2021/04/28 04:50:36;;;;;;;3.05;1.67;;;3.90;99.90;;;;;;5063975;28;20083;-74
2021/04/28 04:53:03;;;;;;;3.50;1.70;;;3.90;99.90;;;;;;5065306;28;20092;-74
2021/04/28 04:55:29;;;;;;;1.95;1.38;;;4.00;99.90;;;;;;5063833;28;20032;-75
2021/04/28 04:57:55;;;;;;;4.43;2.05;;;4.00;99.90;;;;;;5064878;28;20025;-74
2021/04/28 05:00:21;;;;;;;6.13;1.40;;;4.10;99.90;;;;;;5063393;28;20089;-75
2021/04/28 05:02:47;;;;;;;4.18;1.92;;;4.10;99.90;;;;;;5063865;28;20390;-75
2021/04/28 05:05:13;;;;;;;6.85;2.30;;;4.10;99.90;;;;;;5065235;28;20055;-74
2021/04/28 05:07:39;;;;;;;4.78;1.77;;;4.20;99.90;;;;;;5065294;28;20043;-76
2021/04/28 05:10:07;;;;;;;2.63;1.20;;;4.20;99.90;;;;;;5065199;28;20029;-74
2021/04/28 05:12:33;;;;;;;2.67;1.33;;;4.30;99.90;;;;;;5063724;28;20032;-74
2021/04/28 05:14:58;;;;;;;7.38;1.98;;;4.30;99.90;;;;;;5064788;28;20084;-74
2021/04/28 05:17:24;;;;;;;2.17;1.27;;;4.40;99.90;;;;;;5064806;28;20039;-75
2021/04/28 05:19:49;;;;;;;4.15;1.65;;;4.50;99.90;;;;;;5063515;28;20029;-75
2021/04/28 05:22:15;;;;;;;6.22;1.83;;;4.50;99.90;;;;;;5064356;28;20029;-75
2021/04/28 05:24:41;;;;;;;3.78;2.05;;;4.50;99.90;;;;;;5064502;28;20021;-75
2021/04/28 05:27:06;;;;;;;4.00;1.70;;;4.60;99.90;;;;;;5064960;28;20033;-74
2021/04/28 05:29:32;;;;;;;4.43;1.85;;;4.60;99.90;;;;;;5064846;28;20393;-75
2021/04/28 05:31:58;;;;;;;4.18;2.42;;;4.70;99.90;;;;;;5059485;28;20041;-75
2021/04/28 05:34:24;;;;;;;6.70;2.60;;;4.80;99.90;;;;;;5047851;28;20025;-75
2021/04/28 05:36:50;;;;;;;3.13;1.52;;;4.80;99.90;;;;;;5063277;28;20031;-76
2021/04/28 05:39:23;;;;;;;2.55;1.52;;;4.90;99.90;;;;;;5063133;28;20060;-76
2021/04/28 05:41:49;;;;;;;5.45;1.83;;;5.00;99.90;;;;;;5062852;28;20039;-77
2021/04/28 05:44:14;;;;;;;3.35;1.90;;;5.10;99.90;;;;;;5064455;28;20071;-76
2021/04/28 05:46:40;;;;;;;3.65;1.98;;;5.10;99.90;;;;;;5062925;28;20021;-76
2021/04/28 05:49:06;;;;;;;7.53;1.85;;;5.20;99.90;;;;;;5056319;28;20033;-75
2021/04/28 05:51:32;;;;;;;3.13;1.60;;;5.20;99.90;;;;;;5053501;28;20490;-76
2021/04/28 05:53:59;;;;;;;4.28;1.83;;;5.30;99.90;;;;;;5044113;28;20032;-76
2021/04/28 05:56:24;;;;;;;3.42;1.65;;;5.30;99.90;;;;;;5046859;28;20101;-75
2021/04/28 05:58:50;;;;;;;4.80;2.28;;;5.40;99.90;;;;;;5046836;28;20026;-76
2021/04/28 06:01:15;;;;;;;5.53;1.85;;;5.50;99.90;;;;;;5044814;28;20033;-76
2021/04/28 06:03:41;;;;;;;3.45;1.90;;;5.60;99.90;;;;;;5043885;28;20025;-76
2021/04/28 06:06:08;;;;;;;4.07;2.03;;;5.70;99.90;;;;;;5043447;28;20041;-76
2021/04/28 06:08:35;;;;;;;4.93;2.03;;;5.70;99.90;;;;;;5043442;28;20021;-75
2021/04/28 06:11:00;;;;;;;6.72;1.75;;;5.80;99.90;;;;;;5044410;28;20116;-77
2021/04/28 06:13:26;;;;;;;3.78;1.65;;;5.90;99.90;;;;;;5055713;28;20044;-77
2021/04/28 06:15:52;;;;;;;3.38;1.48;;;6.00;99.90;;;;;;5045349;28;20070;-76
2021/04/28 06:18:18;;;;;;;6.95;2.45;;;6.10;99.90;;;;;;5045295;28;20033;-74
2021/04/28 06:20:43;;;;;;;5.07;1.92;;;6.20;99.90;;;;;;5045918;28;20136;-76
2021/04/28 06:23:10;;;;;;;2.78;1.67;;;6.30;99.90;;;;;;5058117;28;20074;-75
2021/04/28 06:25:35;;;;;;;4.95;1.90;;;6.40;99.90;;;;;;5051351;28;20025;-74
2021/04/28 06:28:01;;;;;;;4.13;1.77;;;6.40;99.90;;;;;;5064034;28;20027;-76
2021/04/28 06:30:27;;;;;;;4.53;2.10;;;6.50;99.90;;;;;;5063886;28;20036;-74
2021/04/28 06:32:52;;;;;;;4.72;2.22;;;6.60;99.90;;;;;;5063966;28;20031;-76
2021/04/28 06:35:18;;;;;;;4.35;2.13;;;6.70;99.90;;;;;;5066729;28;20025;-76
2021/04/28 06:37:44;;;;;;;3.83;2.05;;;6.80;99.90;;;;;;5067751;28;20047;-73
2021/04/28 06:40:11;;;;;;;5.18;2.28;;;6.90;99.90;;;;;;5066749;28;20059;-74
2021/04/28 06:42:37;;;;;;;3.45;1.65;;;7.00;99.90;;;;;;5066415;28;20060;-76
2021/04/28 06:45:05;;;;;;;4.90;2.05;;;7.00;99.90;;;;;;5067778;28;20029;-75
2021/04/28 06:47:30;;;;;;;7.63;2.55;;;7.20;99.90;;;;;;5067713;28;20017;-76
2021/04/28 06:49:56;;;;;;;2.67;2.03;;;7.30;99.90;;;;;;5066250;28;20029;-74
2021/04/28 06:52:22;;;;;;;4.28;2.20;;;7.40;99.90;;;;;;5067270;28;20080;-76
2021/04/28 06:54:48;;;;;;;5.18;2.22;;;7.60;99.90;;;;;;5066299;28;20123;-77
2021/04/28 06:57:13;;;;;;;6.90;2.63;;;7.60;99.90;;;;;;5067503;28;20021;-76
2021/04/28 06:59:39;;;;;;;3.97;1.83;;;7.70;99.90;;;;;;5065718;28;20029;-76
2021/04/28 07:02:05;;;;;;;3.97;1.90;;;7.90;99.90;;;;;;5062484;28;20041;-75
2021/04/28 07:04:31;;;;;;;3.17;1.70;;;8.00;99.90;;;;;;5054449;28;20059;-76
2021/04/28 07:06:56;;;;;;;5.85;2.38;;;8.20;99.90;;;;;;5045754;28;20033;-78
2021/04/28 07:09:22;;;;;;;8.73;3.05;;;8.30;99.90;;;;;;5047348;28;20073;-77
2021/04/28 07:11:47;;;;;;;6.72;2.45;;;8.50;99.90;;;;;;5047282;28;20037;-77
2021/04/28 07:14:13;;;;;;;4.13;2.15;;;8.60;99.90;;;;;;5047302;28;20053;-76
2021/04/28 07:16:39;;;;;;;3.47;1.92;;;8.80;99.90;;;;;;5047552;28;20429;-77
2021/04/28 07:19:11;;;;;;;11.35;2.45;;;8.90;99.90;;;;;;5047950;28;20068;-77
2021/04/28 07:21:37;;;;;;;9.38;2.20;;;9.00;99.90;;;;;;5055504;28;20025;-79
2021/04/28 07:24:04;;;;;;;8.57;2.60;;;9.10;99.90;;;;;;5055055;28;20109;-78
2021/04/28 07:26:31;;;;;;;4.35;2.35;;;9.20;99.90;;;;;;5044073;28;20033;-76
2021/04/28 07:28:57;;;;;;;5.20;2.75;;;9.30;99.90;;;;;;5044908;28;20076;-74
2021/04/28 07:31:23;;;;;;;5.45;2.33;;;9.50;99.90;;;;;;5045855;28;20037;-76
2021/04/28 07:33:49;;;;;;;4.93;2.20;;;9.70;99.90;;;;;;5045948;28;20029;-76
2021/04/28 07:36:15;;;;;;;8.00;2.10;;;9.80;99.90;;;;;;5047391;28;20030;-75
2021/04/28 07:38:42;;;;;;;4.28;2.20;;;10.00;99.90;;;;;;5047075;28;20030;-77
2021/04/28 07:41:07;;;;;;;11.70;2.47;;;10.10;99.90;;;;;;5045671;28;20033;-75
2021/04/28 07:43:33;;;;;;;4.63;2.08;;;10.30;99.90;;;;;;5046802;28;20040;-75
2021/04/28 07:45:59;;;;;;;4.28;1.88;;;10.40;99.90;;;;;;5044753;28;20064;-77
2021/04/28 07:48:26;;;;;;;7.70;2.58;;;10.50;99.90;;;;;;5046639;28;20025;-76
2021/04/28 07:50:52;;;;;;;11.88;2.47;;;10.70;99.50;;;;;;5046434;28;20474;-77
2021/04/28 07:53:17;;;;;;;3.72;2.40;;;10.70;98.90;;;;;;5046753;28;20057;-78
2021/04/28 07:55:46;;;;;;;4.63;2.33;;;10.80;98.80;;;;;;5045377;28;20041;-75
2021/04/28 07:58:14;;;;;;;7.07;2.67;;;11.00;99.50;;;;;;5046803;28;20021;-76
2021/04/28 08:00:40;;;;;;;6.50;2.38;;;11.10;98.30;;;;;;5046667;28;20030;-78
2021/04/28 08:03:06;;;;;;;15.30;2.58;;;11.20;98.10;;;;;;5046580;28;20029;-76
2021/04/28 08:05:32;;;;;;;4.95;2.30;;;11.30;98.40;;;;;;5045286;28;20040;-78
2021/04/28 08:07:58;;;;;;;6.82;2.65;;;11.40;97.90;;;;;;5045132;28;20033;-79
2021/04/28 08:10:24;;;;;;;5.80;3.00;;;11.50;96.90;;;;;;5058290;28;20025;-77
2021/04/28 08:12:49;;;;;;;7.45;2.75;;;11.70;96.10;;;;;;5046659;28;20025;-76
2021/04/28 08:15:16;;;;;;;5.53;2.28;;;11.80;95.30;;;;;;5046733;28;20029;-77
2021/04/28 08:17:42;;;;;;;4.82;2.10;;;11.90;95.50;;;;;;5045431;28;20021;-78
2021/04/28 08:20:10;;;;;;;4.75;2.80;;;12.00;96.30;;;;;;5045907;28;20022;-78
2021/04/28 08:22:36;;;;;;;5.03;2.60;;;12.10;95.70;;;;;;5045672;28;20049;-78
2021/04/28 08:25:04;;;;;;;4.45;2.35;;;12.20;94.70;;;;;;5056062;28;20099;-77
2021/04/28 08:27:30;;;;;;;3.42;2.35;;;12.30;94.90;;;;;;5056396;28;20025;-77
2021/04/28 08:29:56;;;;;;;5.43;3.13;;;12.50;94.10;;;;;;5068649;28;20039;-78
2021/04/28 08:32:30;;;;;;;4.85;2.80;;;12.70;94.20;;;;;;5045116;28;20037;-78
2021/04/28 08:34:55;;;;;;;5.47;3.10;;;12.80;92.50;;;;;;5044633;28;20424;-76
2021/04/28 08:37:21;;;;;;;4.55;2.45;;;13.00;93.10;;;;;;5045817;28;20049;-76
2021/04/28 08:39:47;;;;;;;7.35;3.30;;;13.10;92.90;;;;;;5044265;28;20025;-76
2021/04/28 08:42:14;;;;;;;8.43;2.90;;;13.40;92.20;;;;;;5045781;28;20044;-78
2021/04/28 08:44:40;;;;;;;10.63;2.45;;;13.60;92.50;;;;;;5061106;28;20033;-78
2021/04/28 08:47:06;;;;;;;3.90;2.50;;;13.80;91.90;;;;;;5062046;28;20052;-77
2021/04/28 08:49:32;;;;;;;3.28;1.98;;;14.00;92.20;;;;;;5055461;28;20543;-79
2021/04/28 08:51:57;;;;;;;3.50;2.53;;;14.30;91.20;;;;;;5065350;28;20072;-77
2021/04/28 08:54:24;;;;;;;6.78;2.72;;;14.50;90.20;;;;;;5065183;28;20458;-77
2021/04/28 08:56:51;;;;;;;3.45;2.60;;;14.60;90.70;;;;;;5065362;28;20025;-78
2021/04/28 08:59:18;;;;;;;5.40;2.53;;;14.80;88.30;;;;;;5064306;28;20079;-76
2021/04/28 09:01:45;;;;;;;3.40;2.47;;;14.90;89.10;;;;;;5065388;28;20053;-76
2021/04/28 09:04:14;;;;;;;8.48;3.05;;;15.00;90.30;;;;;;5053879;28;20033;-75
2021/04/28 09:06:41;;;;;;;2.90;1.90;;;15.10;88.10;;;;;;5052508;28;20091;-79
2021/04/28 09:09:09;;;;;;;3.97;2.33;;;15.30;82.80;;;;;;5047799;28;20033;-75
2021/04/28 09:11:52;;;;;;;4.57;2.45;;;15.30;84.40;;;;;;5055472;28;20032;-78
2021/04/28 09:14:19;;;;;;;5.97;2.65;;;15.20;84.90;;;;;;5048303;28;20041;-74
2021/04/28 09:17:07;;;;;;;4.10;2.67;;;15.30;82.10;;;;;;5049251;28;20031;-77
2021/04/28 09:19:52;;;;;;;8.98;3.13;;;15.50;82.20;;;;;;5061788;28;20053;-78
2021/04/28 09:22:20;;;;;;;6.80;2.60;;;15.70;81.50;;;;;;5054746;28;20120;-79
2021/04/28 09:24:50;;;;;;;7.43;2.10;;;15.70;78.90;;;;;;5045025;28;20045;-76
2021/04/28 09:27:35;;;;;;;11.27;2.78;;;15.90;80.20;;;;;;5043441;28;20037;-78
2021/04/28 09:30:06;;;;;;;4.78;2.25;;;16.10;79.20;;;;;;5043305;28;20033;-75
2021/04/28 09:32:38;;;;;;;6.40;2.80;;;16.20;76.40;;;;;;5044705;28;20034;-76
2021/04/28 09:35:19;;;;;;;4.68;2.45;;;16.20;76.30;;;;;;5044793;28;20025;-74
2021/04/28 09:37:56;;;;;;;5.93;2.85;;;16.20;75.50;;;;;;5044477;28;20615;-77
2021/04/28 09:40:38;;;;;;;6.00;2.58;;;16.20;73.40;;;;;;5047606;28;20036;-76
2021/04/28 09:43:04;;;;;;;6.10;2.97;;;16.20;76.00;;;;;;5051848;28;20132;-74
2021/04/28 09:45:48;;;;;;;4.15;2.42;;;16.30;76.90;;;;;;5041958;28;20072;-75
2021/04/28 09:48:24;;;;;;;4.63;2.50;;;16.50;75.30;;;;;;5044550;28;20025;-76
2021/04/28 09:51:01;;;;;;;8.70;3.15;;;16.50;74.00;;;;;;5043114;28;20052;-76
2021/04/28 09:53:28;;;;;;;4.15;2.28;;;16.50;74.10;;;;;;5042688;28;20040;-76
2021/04/28 09:55:55;;;;;;;7.63;2.30;;;16.60;74.10;;;;;;5044263;28;20026;-75
2021/04/28 09:58:50;;;;;;;6.78;2.90;;;16.90;75.80;;;;;;5043036;28;20402;-77
2021/04/28 10:01:17;;;;;;;8.52;2.67;;;17.10;73.40;;;;;;5043103;28;20116;-78
2021/04/28 10:03:44;;;;;;;9.52;3.50;;;17.30;74.70;;;;;;5044559;28;20052;-79
2021/04/28 10:06:10;;;;;;;5.05;3.00;;;17.50;72.50;;;;;;5044786;28;20022;-79
2021/04/28 10:08:36;;;;;;;5.30;2.85;;;17.60;73.30;;;;;;5044440;28;20033;-75
2021/04/28 10:11:02;;;;;;;6.40;2.72;;;17.70;72.40;;;;;;5059174;28;20053;-77
2021/04/28 10:13:28;;;;;;;5.38;2.85;;;17.90;72.40;;;;;;5056948;28;20029;-77
2021/04/28 10:15:53;;;;;;;5.32;3.10;;;18.00;72.70;;;;;;5050056;28;20022;-75
2021/04/28 10:18:22;;;;;;;8.98;2.90;;;18.20;71.20;;;;;;5048364;28;20034;-77
2021/04/28 10:20:50;;;;;;;5.28;3.08;;;18.20;68.40;;;;;;5048287;28;20053;-75
2021/04/28 10:23:18;;;;;;;5.85;3.10;;;18.30;69.30;;;;;;5048153;28;20045;-75
2021/04/28 10:25:48;;;;;;;5.20;2.75;;;18.30;69.70;;;;;;5048344;28;20025;-76
2021/04/28 10:28:15;;;;;;;7.47;3.55;;;18.30;69.20;;;;;;5048419;28;20029;-76
2021/04/28 10:30:43;;;;;;;6.07;2.63;;;18.30;69.10;;;;;;5048290;28;20041;-77
2021/04/28 10:33:15;;;;;;;6.85;2.80;;;18.60;70.00;;;;;;5046951;28;20112;-77
2021/04/28 10:35:41;;;;;;;4.80;2.65;;;18.80;70.50;;;;;;5047069;28;20040;-75
2021/04/28 10:38:07;;;;;;;6.10;2.60;;;19.10;65.60;;;;;;5048120;28;20809;-77
2021/04/28 10:40:35;;;;;;;4.45;2.53;;;19.10;69.00;;;;;;5047974;28;20049;-77
2021/04/28 10:43:09;;;;;;;5.65;2.78;;;19.20;68.50;;;;;;5047948;28;20056;-77
2021/04/28 10:45:39;;;;;;;5.53;3.15;;;19.60;66.50;;;;;;5047927;28;20037;-76
2021/04/28 10:48:12;;;;;;;6.15;3.50;;;19.60;67.30;;;;;;5047982;28;20033;-75
2021/04/28 10:50:39;;;;;;;6.60;3.45;;;19.80;66.10;;;;;;5047810;28;20107;-75
2021/04/28 10:53:16;;;;;;;4.60;2.97;;;19.90;65.50;;;;;;5047894;28;20084;-76
2021/04/28 10:55:56;;;;;;;10.05;3.55;;;20.10;65.10;;;;;;5047625;28;20081;-76
2021/04/28 10:58:25;;;;;;;5.50;3.03;;;20.10;65.90;;;;;;5046194;28;20037;-76
2021/04/28 11:01:18;;;;;;;5.68;3.13;;;20.20;63.80;;;;;;5047467;28;20073;-76
2021/04/28 11:03:46;;;;;;;5.03;2.33;;;20.30;65.00;;;;;;5046195;28;20025;-77
2021/04/28 11:06:18;;;;;;;6.60;3.35;;;20.40;63.00;;;;;;5046181;28;20033;-76
2021/04/28 11:09:11;;;;;;;5.78;2.67;;;20.50;63.20;;;;;;5052381;28;20033;-75
2021/04/28 11:11:42;;;;;;;6.70;3.35;;;20.50;63.40;;;;;;5061696;28;20170;-74
2021/04/28 11:16:48;;;;;;;4.97;3.40;;;20.60;63.00;;;;;;5067241;28;20032;-75
2021/04/28 11:19:20;;;;;;;8.52;3.38;;;20.60;61.90;;;;;;5066015;28;20035;-77
2021/04/28 11:22:07;;;;;;;11.57;5.63;;;20.70;64.30;;;;;;5064544;28;20055;-78
2021/04/28 11:25:11;;;;;;;5.97;3.05;;;20.90;64.20;;;;;;5065102;28;20053;-77
2021/04/28 11:28:01;;;;;;;4.97;3.30;;;21.00;62.90;;;;;;5044704;28;20144;-76
2021/04/28 11:30:34;;;;;;;14.40;3.88;;;21.10;59.50;;;;;;5064355;28;20040;-77
2021/04/28 11:33:16;;;;;;;9.77;3.88;;;21.10;62.20;;;;;;5066872;28;20059;-79
2021/04/28 11:35:44;;;;;;;7.10;3.30;;;21.20;61.00;;;;;;5066803;28;20025;-76
2021/04/28 11:38:13;;;;;;;5.03;3.30;;;21.50;63.50;;;;;;5067045;28;20032;-77
2021/04/28 11:41:03;;;;;;;5.78;3.42;;;21.70;62.50;;;;;;5065674;28;20029;-77
2021/04/28 11:43:34;;;;;;;13.48;3.03;;;21.90;59.40;;;;;;5066892;28;20055;-78
2021/04/28 11:46:14;;;;;;;5.30;3.05;;;22.00;62.60;;;;;;5065360;28;20052;-74
2021/04/28 11:48:42;;;;;;;5.72;2.95;;;22.20;62.20;;;;;;5065636;28;20037;-76
2021/04/28 11:51:24;;;;;;;6.22;3.72;;;22.30;60.10;;;;;;5066446;28;20063;-75
2021/04/28 11:53:53;;;;;;;5.15;3.05;;;22.40;58.20;;;;;;5065103;28;20048;-75
2021/04/28 11:56:42;;;;;;;8.68;3.67;;;22.50;59.80;;;;;;5066376;28;20064;-75
2021/04/28 11:59:20;;;;;;;5.03;3.20;;;22.50;58.50;;;;;;5066922;28;20530;-75
2021/04/28 12:01:46;;;;;;;10.20;3.83;;;22.40;56.70;;;;;;5066544;28;20025;-77
2021/04/28 12:04:12;;;;;;;6.47;3.17;;;22.40;57.80;;;;;;5066320;28;20061;-75
2021/04/28 12:06:42;;;;;;;7.43;4.03;;;22.50;58.80;;;;;;5066496;28;20095;-75
2021/04/28 12:09:16;;;;;;;20.42;4.13;;;22.70;56.40;;;;;;5065138;28;20029;-77
2021/04/28 12:11:48;;;;;;;6.60;3.60;;;22.60;58.70;;;;;;5065147;28;20033;-76
2021/04/28 12:14:23;;;;;;;6.32;3.80;;;22.70;58.00;;;;;;5066073;28;20030;-74
2021/04/28 12:16:54;;;;;;;8.10;4.20;;;22.70;57.50;;;;;;5064678;28;20025;-74
2021/04/28 12:19:21;;;;;;;7.53;4.20;;;22.90;56.80;;;;;;5066175;28;20381;-75
2021/04/28 12:21:51;;;;;;;6.47;3.22;;;23.10;57.50;;;;;;5065177;28;20052;-77
2021/04/28 12:24:29;;;;;;;6.82;3.75;;;23.00;58.60;;;;;;5065932;28;20053;-78
2021/04/28 12:27:14;;;;;;;9.57;4.30;;;23.20;57.30;;;;;;5066153;28;20036;-77
2021/04/28 12:29:43;;;;;;;11.18;4.25;;;23.30;56.00;;;;;;5065002;28;20116;-78
2021/04/28 12:32:10;;;;;;;5.80;3.60;;;23.40;57.20;;;;;;5064449;28;20048;-76
2021/04/28 12:34:38;;;;;;;7.85;3.60;;;23.50;56.50;;;;;;5064489;28;20036;-73
2021/04/28 12:37:08;;;;;;;7.38;3.83;;;23.50;55.80;;;;;;5065393;28;20036;-72
2021/04/28 12:39:34;;;;;;;10.32;3.97;;;23.40;54.30;;;;;;5065088;28;20025;-76
2021/04/28 12:42:00;;;;;;;10.13;4.13;;;23.30;54.60;;;;;;5064740;28;20173;-77
2021/04/28 12:44:26;;;;;;;6.32;3.47;;;23.30;55.60;;;;;;5065008;28;20044;-75
2021/04/28 12:46:53;;;;;;;5.95;3.40;;;23.40;54.90;;;;;;5064931;28;20028;-76
2021/04/28 12:49:23;;;;;;;8.05;4.00;;;23.50;55.00;;;;;;5064236;28;20025;-75
2021/04/28 12:51:50;;;;;;;8.77;3.78;;;23.50;54.20;;;;;;5065136;28;20072;-77
2021/04/28 12:54:27;;;;;;;6.47;3.55;;;23.50;54.50;;;;;;5065209;28;20385;-78
2021/04/28 12:56:52;;;;;;;8.35;4.30;;;23.60;54.40;;;;;;5065469;28;20035;-77
2021/04/28 12:59:23;;;;;;;5.47;2.95;;;23.50;55.00;;;;;;5065499;28;20081;-76
2021/04/28 13:02:00;;;;;;;8.10;4.00;;;23.80;54.80;;;;;;5065170;28;20075;-78